Time;durP1;ratioP1;P1;durP2;ratioP2;P2;SDS_P1;SDS_P2;PMS_P1;PMS_P2;Temp;Humidity;BMP_temperature;BMP_pressure;BME280_temperature;BME280_humidity;BME280_pressure;Samples;Min_cycle;Max_cycle;Signal;HPM_P1;HPM_P2
2022/12/08 00:01:04;;;;;;;0.00;0.00;;;13.90;82.20;;;;;;4210035;28;20760;-61
2022/12/08 00:03:47;;;;;;;0.00;0.00;;;13.90;82.60;;;;;;4204209;28;20054;-61
2022/12/08 00:09:33;;;;;;;0.77;0.73;;;14.00;82.40;;;;;;4209728;28;20070;-60
2022/12/08 00:12:18;;;;;;;0.00;0.00;;;14.10;82.10;;;;;;4209859;28;20055;-60
2022/12/08 00:14:59;;;;;;;0.00;0.00;;;14.20;81.90;;;;;;4209890;28;20042;-61
2022/12/08 00:17:40;;;;;;;0.00;0.00;;;14.20;81.60;;;;;;4209469;28;20347;-60
2022/12/08 00:20:22;;;;;;;0.73;0.73;;;14.20;81.60;;;;;;4209860;28;20046;-60
2022/12/08 00:23:03;;;;;;;0.00;0.00;;;14.30;81.50;;;;;;4195315;28;20047;-61
2022/12/08 00:25:44;;;;;;;0.00;0.00;;;14.40;82.10;;;;;;4209560;28;20109;-60
2022/12/08 00:28:25;;;;;;;0.00;0.00;;;14.40;81.80;;;;;;4209709;28;20117;-60
2022/12/08 00:31:10;;;;;;;0.00;0.00;;;14.50;80.70;;;;;;4208841;28;20174;-60
2022/12/08 00:33:50;;;;;;;0.00;0.00;;;14.50;80.50;;;;;;4192826;28;20051;-60
2022/12/08 00:36:33;;;;;;;0.00;0.00;;;14.50;80.30;;;;;;4196144;28;20094;-60
2022/12/08 00:39:15;;;;;;;0.00;0.00;;;14.50;80.20;;;;;;4209361;28;20059;-60
2022/12/08 00:42:14;;;;;;;0.00;0.00;;;14.50;80.10;;;;;;4209291;28;20511;-60
2022/12/08 00:44:54;;;;;;;0.00;0.00;;;14.50;80.10;;;;;;4209041;28;20054;-60
2022/12/08 00:47:35;;;;;;;0.00;0.00;;;14.50;80.20;;;;;;4208987;28;20193;-60
2022/12/08 00:50:16;;;;;;;0.00;0.00;;;14.50;80.20;;;;;;4208931;28;20473;-60
2022/12/08 00:52:58;;;;;;;0.00;0.00;;;14.50;80.00;;;;;;4192296;28;20095;-60
2022/12/08 00:55:39;;;;;;;0.00;0.00;;;14.60;79.90;;;;;;4192185;28;20205;-60
2022/12/08 00:58:20;;;;;;;0.00;0.00;;;14.70;80.70;;;;;;4196533;28;20074;-61
2022/12/08 01:01:01;;;;;;;0.00;0.00;;;14.70;79.50;;;;;;4195899;28;20074;-60
2022/12/08 01:03:43;;;;;;;0.00;0.00;;;14.80;79.30;;;;;;4208776;28;20451;-60
2022/12/08 01:06:24;;;;;;;0.00;0.00;;;14.80;79.00;;;;;;4209228;28;20166;-60
2022/12/08 01:09:07;;;;;;;0.00;0.00;;;14.90;78.80;;;;;;4209804;28;20054;-60
2022/12/08 01:11:48;;;;;;;0.00;0.00;;;14.90;78.60;;;;;;4209751;28;20407;-60
2022/12/08 01:14:29;;;;;;;0.00;0.00;;;14.90;78.40;;;;;;4193356;28;20185;-59
2022/12/08 01:17:10;;;;;;;0.00;0.00;;;14.90;78.30;;;;;;4191947;28;20213;-61
2022/12/08 01:19:51;;;;;;;0.00;0.00;;;14.90;78.40;;;;;;4193239;28;20106;-60
2022/12/08 01:22:34;;;;;;;0.00;0.00;;;14.90;78.10;;;;;;4193391;28;20062;-61
2022/12/08 01:25:17;;;;;;;0.00;0.00;;;15.00;77.90;;;;;;4191920;28;20051;-60
2022/12/08 01:27:57;;;;;;;0.00;0.00;;;15.00;77.70;;;;;;4193065;28;20458;-61
2022/12/08 01:30:38;;;;;;;0.00;0.00;;;15.00;77.60;;;;;;4208426;28;20059;-61
2022/12/08 01:33:19;;;;;;;0.00;0.00;;;15.00;77.40;;;;;;4208365;28;20050;-61
2022/12/08 01:36:04;;;;;;;0.00;0.00;;;15.10;77.40;;;;;;4192464;28;20440;-60
2022/12/08 01:38:44;;;;;;;0.00;0.00;;;15.10;77.10;;;;;;4208430;28;20055;-61
2022/12/08 01:41:29;;;;;;;0.00;0.00;;;15.10;77.00;;;;;;4208555;28;20047;-61
2022/12/08 01:45:02;;;;;;;0.00;0.00;;;15.10;77.00;;;;;;4208450;28;20105;-61
2022/12/08 01:47:47;;;;;;;0.00;0.00;;;15.20;76.80;;;;;;4124894;28;20053;-60
2022/12/08 01:50:30;;;;;;;0.00;0.00;;;15.20;76.60;;;;;;4127436;28;20111;-61
2022/12/08 01:53:14;;;;;;;0.00;0.00;;;15.20;76.40;;;;;;4199905;28;20094;-60
2022/12/08 01:55:58;;;;;;;0.00;0.00;;;15.30;76.40;;;;;;4209262;28;20066;-60
2022/12/08 01:58:43;;;;;;;0.00;0.00;;;15.30;76.20;;;;;;4209064;28;20120;-60
2022/12/08 02:01:24;;;;;;;0.00;0.00;;;15.30;76.00;;;;;;4201637;28;20047;-60
2022/12/08 02:04:05;;;;;;;0.00;0.00;;;15.30;76.90;;;;;;4192867;28;20422;-61
2022/12/08 02:06:47;;;;;;;0.00;0.00;;;15.30;76.00;;;;;;4192131;28;20052;-60
2022/12/08 02:09:28;;;;;;;1.55;0.52;;;15.40;76.00;;;;;;4201235;28;20063;-60
2022/12/08 02:12:10;;;;;;;0.00;0.00;;;15.30;75.90;;;;;;4182168;28;20419;-60
2022/12/08 02:14:53;;;;;;;0.00;0.00;;;15.30;75.90;;;;;;4208364;28;20129;-60
2022/12/08 02:17:49;;;;;;;0.00;0.00;;;15.30;76.00;;;;;;4208416;28;20116;-60
2022/12/08 02:20:53;;;;;;;0.00;0.00;;;15.20;76.10;;;;;;4207863;28;20059;-60
2022/12/08 02:23:41;;;;;;;0.00;0.00;;;15.20;76.40;;;;;;4208096;28;20051;-61
2022/12/08 02:27:04;;;;;;;0.00;0.00;;;15.20;76.70;;;;;;4195904;28;20050;-60
2022/12/08 02:30:22;;;;;;;0.00;0.00;;;15.10;76.80;;;;;;4208663;28;20051;-60
2022/12/08 02:33:30;;;;;;;0.30;0.30;;;15.20;76.60;;;;;;4207428;28;20099;-60
2022/12/08 02:36:17;;;;;;;0.00;0.00;;;15.20;76.40;;;;;;4208883;28;20104;-60
2022/12/08 02:39:04;;;;;;;0.00;0.00;;;15.30;76.40;;;;;;4192144;28;20051;-60
2022/12/08 02:41:53;;;;;;;0.00;0.00;;;15.20;76.40;;;;;;4207813;28;20055;-60
2022/12/08 02:44:39;;;;;;;0.00;0.00;;;15.20;76.40;;;;;;4191462;28;20051;-60
2022/12/08 02:47:23;;;;;;;0.00;0.00;;;15.20;76.20;;;;;;4191268;28;20059;-60
2022/12/08 02:50:05;;;;;;;0.00;0.00;;;15.20;76.20;;;;;;4195172;28;20051;-61
2022/12/08 02:52:48;;;;;;;0.00;0.00;;;15.20;76.30;;;;;;4207771;28;20112;-60
2022/12/08 02:55:37;;;;;;;0.00;0.00;;;15.20;76.20;;;;;;4195932;28;20055;-60
2022/12/08 02:58:35;;;;;;;0.05;0.05;;;15.20;76.20;;;;;;4207482;28;20125;-60
2022/12/08 03:01:32;;;;;;;0.00;0.00;;;15.30;76.30;;;;;;4190156;28;20064;-61
2022/12/08 03:04:21;;;;;;;0.00;0.00;;;15.20;76.30;;;;;;4174193;28;20059;-61
2022/12/08 03:07:08;;;;;;;0.00;0.00;;;15.20;76.50;;;;;;4188418;28;20055;-60
2022/12/08 03:09:56;;;;;;;0.00;0.00;;;15.10;76.50;;;;;;4208045;28;20051;-61
2022/12/08 03:12:42;;;;;;;0.00;0.00;;;15.10;76.80;;;;;;4208704;28;20503;-61
2022/12/08 03:15:23;;;;;;;0.00;0.00;;;15.10;77.00;;;;;;4211191;28;20055;-60
2022/12/08 03:18:06;;;;;;;0.00;0.00;;;15.10;76.90;;;;;;4210395;28;20132;-65
2022/12/08 03:20:49;;;;;;;0.00;0.00;;;15.10;76.90;;;;;;4210303;28;20125;-60
2022/12/08 03:23:31;;;;;;;0.00;0.00;;;15.10;76.80;;;;;;4211123;28;20059;-61
2022/12/08 03:26:18;;;;;;;0.00;0.00;;;15.20;76.90;;;;;;4210561;28;20067;-60
2022/12/08 03:29:00;;;;;;;0.00;0.00;;;15.20;76.70;;;;;;4210567;28;20058;-60
2022/12/08 03:31:45;;;;;;;0.00;0.00;;;15.20;76.50;;;;;;4210704;28;20088;-60
2022/12/08 03:34:29;;;;;;;0.00;0.00;;;15.20;76.50;;;;;;4210667;28;20051;-60
2022/12/08 03:37:10;;;;;;;0.00;0.00;;;15.30;76.50;;;;;;4210501;28;20055;-60
2022/12/08 03:39:51;;;;;;;0.00;0.00;;;15.30;76.30;;;;;;4210757;28;20110;-60
2022/12/08 03:42:33;;;;;;;0.00;0.00;;;15.30;76.00;;;;;;4198191;28;20362;-60
2022/12/08 03:45:14;;;;;;;0.00;0.00;;;15.40;75.90;;;;;;4210841;28;20070;-60
2022/12/08 03:47:55;;;;;;;0.00;0.00;;;15.40;75.60;;;;;;4210547;28;20052;-60
2022/12/08 03:50:36;;;;;;;0.00;0.00;;;15.40;75.70;;;;;;4210671;28;20058;-60
2022/12/08 03:53:17;;;;;;;0.00;0.00;;;15.40;75.60;;;;;;4210599;28;20514;-60
2022/12/08 03:55:58;;;;;;;0.00;0.00;;;15.40;75.50;;;;;;4210333;28;20051;-60
2022/12/08 03:58:40;;;;;;;0.00;0.00;;;15.40;75.50;;;;;;4210308;28;20065;-60
2022/12/08 04:01:21;;;;;;;2.35;1.75;;;15.40;75.50;;;;;;4210468;28;20182;-60
2022/12/08 04:04:02;;;;;;;0.43;0.43;;;15.50;75.40;;;;;;4210534;28;20120;-65
2022/12/08 04:06:42;;;;;;;0.00;0.00;;;15.50;75.30;;;;;;4210015;28;20105;-65
2022/12/08 04:09:24;;;;;;;0.00;0.00;;;15.50;75.20;;;;;;4210659;28;20189;-65
2022/12/08 04:12:05;;;;;;;0.00;0.00;;;15.50;75.30;;;;;;4211087;28;20055;-65
2022/12/08 04:14:47;;;;;;;0.00;0.00;;;15.50;75.30;;;;;;4210805;28;20050;-65
2022/12/08 04:17:28;;;;;;;0.00;0.00;;;15.50;76.00;;;;;;4210885;28;20510;-65
2022/12/08 04:20:10;;;;;;;0.00;0.00;;;15.50;75.00;;;;;;4210858;28;20051;-65
2022/12/08 04:22:50;;;;;;;0.00;0.00;;;15.50;75.00;;;;;;4210960;28;20051;-65
2022/12/08 04:25:32;;;;;;;0.00;0.00;;;15.50;74.90;;;;;;4193506;28;20056;-65
2022/12/08 04:28:13;;;;;;;0.10;0.10;;;15.50;75.10;;;;;;4192622;28;20182;-65
2022/12/08 04:30:55;;;;;;;0.00;0.00;;;15.50;75.10;;;;;;4193966;28;20060;-65
2022/12/08 04:33:36;;;;;;;0.65;0.65;;;15.50;75.00;;;;;;4194011;28;20054;-65
2022/12/08 04:36:17;;;;;;;0.00;0.00;;;15.50;75.00;;;;;;4198473;28;20399;-65
2022/12/08 04:38:58;;;;;;;0.00;0.00;;;15.50;74.90;;;;;;4209287;28;20062;-65
2022/12/08 04:41:38;;;;;;;0.00;0.00;;;15.50;74.80;;;;;;4210852;28;20063;-65
2022/12/08 04:44:20;;;;;;;0.00;0.00;;;15.50;74.70;;;;;;4210690;28;20051;-61
2022/12/08 04:47:02;;;;;;;0.00;0.00;;;15.50;75.00;;;;;;4210241;28;20055;-60
2022/12/08 04:49:42;;;;;;;0.00;0.00;;;15.50;75.00;;;;;;4210389;28;20344;-61
2022/12/08 04:52:23;;;;;;;0.00;0.00;;;15.50;74.90;;;;;;4210251;28;20387;-60
2022/12/08 04:55:04;;;;;;;0.00;0.00;;;15.50;74.80;;;;;;4207917;28;20055;-61
2022/12/08 04:57:45;;;;;;;0.00;0.00;;;15.50;74.80;;;;;;4193611;28;20419;-60
2022/12/08 05:00:26;;;;;;;0.00;0.00;;;15.50;74.80;;;;;;4193619;28;20629;-60
2022/12/08 05:03:09;;;;;;;4.50;2.55;;;15.50;74.80;;;;;;4193323;28;20063;-60
2022/12/08 05:05:49;;;;;;;0.00;0.00;;;15.60;74.70;;;;;;4180210;28;20043;-60
2022/12/08 05:08:31;;;;;;;0.00;0.00;;;15.60;74.60;;;;;;4208826;28;20100;-60
2022/12/08 05:11:13;;;;;;;0.00;0.00;;;15.60;74.50;;;;;;4192050;28;20047;-61
2022/12/08 05:13:53;;;;;;;0.00;0.00;;;15.60;74.50;;;;;;4192204;28;20052;-61
2022/12/08 05:16:34;;;;;;;0.00;0.00;;;15.50;74.50;;;;;;4201616;28;20589;-60
2022/12/08 05:19:17;;;;;;;;;;;15.60;74.60;;;;;;4209550;28;20158;-61
2022/12/08 05:21:58;;;;;;;0.00;0.00;;;15.60;74.60;;;;;;4209297;28;20372;-60
2022/12/08 05:24:39;;;;;;;0.00;0.00;;;15.60;74.60;;;;;;4208763;28;20525;-60
2022/12/08 05:27:26;;;;;;;0.00;0.00;;;15.60;74.40;;;;;;4206540;28;20059;-60
2022/12/08 05:30:07;;;;;;;0.00;0.00;;;15.50;74.50;;;;;;4209143;28;20059;-60
2022/12/08 05:32:48;;;;;;;0.00;0.00;;;15.50;74.50;;;;;;4209073;28;20847;-60
2022/12/08 05:35:30;;;;;;;0.00;0.00;;;15.50;74.50;;;;;;4208577;28;20055;-60
2022/12/08 05:38:11;;;;;;;0.00;0.00;;;15.50;74.50;;;;;;4208629;28;20051;-60
2022/12/08 05:40:52;;;;;;;0.00;0.00;;;15.50;75.40;;;;;;4208978;28;20410;-59
2022/12/08 05:43:33;;;;;;;0.00;0.00;;;15.50;74.70;;;;;;4209327;28;20051;-60
2022/12/08 05:46:14;;;;;;;0.00;0.00;;;15.50;74.80;;;;;;4209112;28;20505;-60
2022/12/08 05:48:55;;;;;;;0.00;0.00;;;15.50;74.70;;;;;;4209326;28;20050;-60
2022/12/08 05:51:37;;;;;;;0.00;0.00;;;15.50;74.60;;;;;;4209148;28;20459;-60
2022/12/08 05:54:17;;;;;;;0.00;0.00;;;15.50;74.40;;;;;;4208693;28;20293;-62
2022/12/08 05:56:59;;;;;;;0.00;0.00;;;15.60;74.40;;;;;;4209099;28;20051;-59
2022/12/08 05:59:40;;;;;;;0.00;0.00;;;15.50;74.30;;;;;;4208626;28;20066;-58
2022/12/08 06:02:21;;;;;;;0.00;0.00;;;15.50;74.50;;;;;;4209032;28;20051;-59
2022/12/08 06:05:02;;;;;;;0.00;0.00;;;15.50;74.40;;;;;;4209073;28;20505;-59
2022/12/08 06:07:45;;;;;;;0.00;0.00;;;15.60;74.40;;;;;;4208732;28;20071;-63
2022/12/08 06:10:26;;;;;;;0.00;0.00;;;15.60;74.30;;;;;;4187547;28;20246;-59
2022/12/08 06:13:07;;;;;;;0.00;0.00;;;15.50;75.10;;;;;;4191662;28;20058;-58
2022/12/08 06:15:48;;;;;;;0.00;0.00;;;15.50;74.20;;;;;;4192114;28;20047;-59
2022/12/08 06:18:29;;;;;;;0.00;0.00;;;15.50;74.30;;;;;;4192456;28;20067;-59
2022/12/08 06:21:14;;;;;;;0.00;0.00;;;15.50;74.40;;;;;;4175982;28;20055;-59
2022/12/08 06:23:56;;;;;;;0.00;0.00;;;15.50;74.40;;;;;;4178854;28;20048;-59
2022/12/08 06:26:39;;;;;;;0.00;0.00;;;15.60;74.30;;;;;;4192498;28;20149;-59
2022/12/08 06:29:19;;;;;;;0.00;0.00;;;15.60;74.20;;;;;;4188979;28;20052;-59
2022/12/08 06:32:00;;;;;;;0.00;0.00;;;15.60;74.10;;;;;;4192127;28;20048;-57
2022/12/08 06:34:41;;;;;;;0.00;0.00;;;15.60;74.20;;;;;;4192143;28;20058;-59
2022/12/08 06:37:22;;;;;;;0.00;0.00;;;15.50;75.20;;;;;;4192197;28;20101;-59
2022/12/08 06:40:06;;;;;;;0.00;0.00;;;15.50;74.30;;;;;;4191721;28;20051;-59
2022/12/08 06:42:47;;;;;;;0.00;0.00;;;15.60;74.20;;;;;;4164368;28;20056;-61
2022/12/08 06:45:28;;;;;;;0.00;0.00;;;15.60;74.10;;;;;;4175426;28;20055;-61
2022/12/08 06:48:09;;;;;;;0.00;0.00;;;15.50;74.00;;;;;;4176058;28;20122;-60
2022/12/08 06:50:50;;;;;;;0.00;0.00;;;15.50;74.20;;;;;;4189867;28;20285;-61
2022/12/08 06:53:30;;;;;;;0.00;0.00;;;15.50;74.30;;;;;;4195223;28;20083;-59
2022/12/08 06:56:15;;;;;;;2.17;1.98;;;15.50;74.70;;;;;;4194793;28;20684;-59
2022/12/08 06:58:56;;;;;;;0.00;0.00;;;15.70;74.60;;;;;;4194426;28;20062;-60
2022/12/08 07:01:37;;;;;;;0.00;0.00;;;15.80;74.00;;;;;;4177692;28;20060;-60
2022/12/08 07:04:17;;;;;;;0.00;0.00;;;15.90;73.50;;;;;;4186249;28;20059;-60
2022/12/08 07:06:58;;;;;;;0.00;0.00;;;16.00;72.90;;;;;;4195379;28;20055;-60
2022/12/08 07:09:38;;;;;;;0.00;0.00;;;16.00;72.50;;;;;;4209958;28;20100;-60
2022/12/08 07:12:21;;;;;;;0.10;0.10;;;16.00;72.30;;;;;;4211132;28;20489;-60
2022/12/08 07:15:02;;;;;;;0.10;0.10;;;16.00;72.40;;;;;;4211242;28;20066;-60
2022/12/08 07:17:43;;;;;;;0.08;0.08;;;15.90;72.50;;;;;;4210523;28;20047;-60
2022/12/08 07:20:24;;;;;;;0.00;0.00;;;15.90;72.70;;;;;;4210417;28;20186;-60
2022/12/08 07:23:04;;;;;;;0.00;0.00;;;15.80;72.80;;;;;;4211206;28;20058;-60
2022/12/08 07:25:45;;;;;;;0.00;0.00;;;15.80;72.70;;;;;;4210842;28;20327;-60
2022/12/08 07:28:29;;;;;;;0.00;0.00;;;15.80;72.90;;;;;;4211644;28;20116;-60
2022/12/08 07:31:17;;;;;;;0.00;0.00;;;15.90;73.80;;;;;;4210416;28;20101;-60
2022/12/08 07:33:58;;;;;;;0.00;0.00;;;15.90;74.00;;;;;;4194916;28;20051;-60
2022/12/08 07:36:39;;;;;;;0.52;0.52;;;15.90;74.00;;;;;;4205436;28;20064;-60
2022/12/08 07:39:20;;;;;;;0.00;0.00;;;15.90;74.30;;;;;;4202120;28;20066;-60
2022/12/08 07:42:01;;;;;;;0.95;0.95;;;15.80;74.40;;;;;;4194724;28;20146;-61
2022/12/08 07:44:43;;;;;;;0.32;0.32;;;15.80;74.50;;;;;;4196661;28;20407;-60
2022/12/08 07:47:24;;;;;;;0.13;0.13;;;15.80;74.20;;;;;;4210453;28;20055;-60
2022/12/08 07:50:06;;;;;;;0.00;0.00;;;15.80;75.70;;;;;;4211188;28;20055;-59
2022/12/08 07:52:48;;;;;;;0.00;0.00;;;15.80;75.10;;;;;;4210825;28;20174;-59
2022/12/08 07:55:29;;;;;;;0.25;0.25;;;15.80;74.80;;;;;;4193161;28;20093;-59
2022/12/08 07:58:11;;;;;;;0.00;0.00;;;15.80;74.80;;;;;;4198042;28;20046;-60
2022/12/08 08:00:53;;;;;;;0.00;0.00;;;15.90;74.30;;;;;;4209618;28;20481;-60
2022/12/08 08:03:34;;;;;;;6.20;0.57;;;16.00;74.10;;;;;;4210209;28;20063;-60
2022/12/08 08:06:15;;;;;;;0.00;0.00;;;16.00;73.40;;;;;;4197498;28;20073;-60
2022/12/08 08:08:56;;;;;;;0.03;0.03;;;16.10;74.20;;;;;;4209972;28;20061;-59
2022/12/08 08:11:37;;;;;;;0.00;0.00;;;16.00;73.30;;;;;;4204262;28;20144;-60
2022/12/08 08:14:19;;;;;;;0.00;0.00;;;16.00;72.90;;;;;;4211095;28;20425;-60
2022/12/08 08:17:02;;;;;;;0.00;0.00;;;16.00;72.70;;;;;;4194114;28;20137;-60
2022/12/08 08:19:42;;;;;;;0.00;0.00;;;16.00;72.30;;;;;;4196593;28;20050;-60
2022/12/08 08:22:24;;;;;;;0.00;0.00;;;16.00;72.50;;;;;;4202811;28;20055;-60
2022/12/08 08:25:05;;;;;;;;;;;16.00;72.10;;;;;;4210697;28;20602;-60
2022/12/08 08:27:47;;;;;;;0.00;0.00;;;16.00;72.00;;;;;;4194188;28;19931;-60
2022/12/08 08:30:27;;;;;;;0.00;0.00;;;16.00;72.00;;;;;;4194125;28;20110;-59
2022/12/08 08:33:09;;;;;;;3.67;0.63;;;16.00;71.80;;;;;;4194147;28;20510;-60
2022/12/08 08:35:50;;;;;;;0.08;0.08;;;15.90;71.80;;;;;;4210215;28;20526;-60
2022/12/08 08:38:31;;;;;;;0.00;0.00;;;15.90;71.60;;;;;;4208696;28;20067;-59
2022/12/08 08:41:12;;;;;;;0.00;0.00;;;15.80;71.80;;;;;;4210586;28;20089;-60
2022/12/08 08:43:54;;;;;;;0.00;0.00;;;15.80;72.20;;;;;;4210158;28;20621;-60
2022/12/08 08:46:35;;;;;;;0.00;0.00;;;15.70;72.60;;;;;;4193557;28;20073;-63
2022/12/08 08:49:18;;;;;;;0.00;0.00;;;15.70;72.60;;;;;;4202617;28;20509;-63
2022/12/08 08:52:00;;;;;;;0.00;0.00;;;15.70;72.60;;;;;;4206723;28;20396;-63
2022/12/08 08:54:41;;;;;;;0.00;0.00;;;15.70;72.30;;;;;;4209561;28;20051;-63
2022/12/08 08:57:22;;;;;;;0.00;0.00;;;15.70;72.00;;;;;;4200284;28;20055;-63
2022/12/08 09:00:08;;;;;;;0.00;0.00;;;15.70;72.00;;;;;;4209906;28;20501;-62
2022/12/08 09:02:49;;;;;;;0.00;0.00;;;15.70;71.60;;;;;;4204854;28;20047;-62
2022/12/08 09:05:31;;;;;;;0.00;0.00;;;15.70;71.50;;;;;;4208572;28;20086;-63
2022/12/08 09:08:12;;;;;;;0.00;0.00;;;15.60;71.60;;;;;;4204444;28;20141;-63
2022/12/08 09:10:53;;;;;;;0.00;0.00;;;15.60;71.90;;;;;;4209603;28;20046;-63
2022/12/08 09:13:34;;;;;;;0.35;0.35;;;15.50;72.30;;;;;;4191883;28;20084;-63
2022/12/08 09:16:16;;;;;;;0.00;0.00;;;15.50;72.80;;;;;;4199153;28;20047;-62
2022/12/08 09:18:57;;;;;;;;;;;15.50;73.10;;;;;;4210282;28;20128;-62
2022/12/08 09:21:40;;;;;;;0.00;0.00;;;15.50;73.00;;;;;;4209311;28;20008;-62
2022/12/08 09:24:20;;;;;;;0.00;0.00;;;15.60;72.90;;;;;;4192778;28;20058;-62
2022/12/08 09:27:01;;;;;;;0.00;0.00;;;15.60;73.00;;;;;;4207825;28;20423;-62
2022/12/08 09:29:42;;;;;;;0.00;0.00;;;15.60;72.40;;;;;;4192200;28;20105;-62
2022/12/08 09:32:24;;;;;;;0.00;0.00;;;15.60;72.80;;;;;;4192080;28;20055;-62
2022/12/08 09:35:05;;;;;;;0.00;0.00;;;15.60;72.80;;;;;;4192251;28;20055;-62
2022/12/08 09:37:47;;;;;;;0.00;0.00;;;15.60;72.60;;;;;;4203435;28;20047;-63
2022/12/08 09:40:32;;;;;;;0.00;0.00;;;15.60;72.20;;;;;;4208723;28;20541;-63
2022/12/08 09:43:25;;;;;;;0.00;0.00;;;15.50;71.80;;;;;;4208734;28;20051;-63
2022/12/08 09:46:09;;;;;;;0.00;0.00;;;15.50;71.90;;;;;;4207136;28;20055;-63
2022/12/08 09:48:54;;;;;;;0.00;0.00;;;15.50;72.10;;;;;;4209459;28;20051;-63
2022/12/08 09:51:40;;;;;;;0.52;0.52;;;15.40;72.30;;;;;;4191853;28;20435;-63
2022/12/08 09:54:30;;;;;;;0.00;0.00;;;15.30;72.50;;;;;;4182703;28;20056;-63
2022/12/08 09:57:18;;;;;;;0.00;0.00;;;15.20;72.60;;;;;;4181793;28;20060;-63
2022/12/08 10:00:04;;;;;;;0.00;0.00;;;15.10;73.00;;;;;;4176417;28;20070;-63
2022/12/08 10:02:48;;;;;;;0.00;0.00;;;15.00;73.30;;;;;;4190364;28;20047;-63
2022/12/08 10:05:31;;;;;;;0.00;0.00;;;15.10;73.10;;;;;;4190955;28;20272;-63
2022/12/08 10:08:19;;;;;;;0.00;0.00;;;15.10;72.60;;;;;;4192519;28;20098;-63
2022/12/08 10:11:10;;;;;;;1.45;0.80;;;15.20;72.00;;;;;;4191846;28;20530;-63
2022/12/08 10:13:58;;;;;;;0.00;0.00;;;15.30;71.60;;;;;;4179676;28;20106;-63
2022/12/08 10:16:41;;;;;;;0.00;0.00;;;15.30;72.10;;;;;;4201889;28;20506;-63
2022/12/08 10:19:24;;;;;;;0.00;0.00;;;15.30;72.10;;;;;;4209129;28;20121;-63
2022/12/08 10:22:17;;;;;;;0.00;0.00;;;15.30;71.00;;;;;;4207737;28;20655;-63
2022/12/08 10:25:04;;;;;;;0.35;0.35;;;15.40;70.70;;;;;;4207935;28;20356;-64
2022/12/08 10:27:48;;;;;;;0.00;0.00;;;15.40;70.50;;;;;;4208839;28;20051;-63
2022/12/08 10:30:32;;;;;;;0.00;0.00;;;15.40;70.40;;;;;;4208219;28;20071;-63
2022/12/08 10:33:16;;;;;;;9.25;3.22;;;15.40;70.50;;;;;;4208447;28;20502;-63
2022/12/08 10:36:01;;;;;;;0.00;0.00;;;15.40;71.10;;;;;;4208832;28;20185;-63
2022/12/08 10:38:42;;;;;;;0.00;0.00;;;15.50;70.70;;;;;;4209105;28;20047;-62
2022/12/08 10:41:24;;;;;;;0.05;0.05;;;15.60;70.40;;;;;;4208525;28;20051;-63
2022/12/08 10:44:09;;;;;;;;;;;15.60;70.10;;;;;;4192531;28;20056;-62
2022/12/08 10:46:50;;;;;;;0.40;0.40;;;15.60;70.00;;;;;;4192391;28;19947;-62
2022/12/08 10:49:32;;;;;;;0.00;0.00;;;15.60;70.10;;;;;;4208253;28;20055;-62
2022/12/08 10:52:22;;;;;;;;;;;15.60;70.10;;;;;;4208142;28;20069;-62
2022/12/08 10:55:03;;;;;;;0.00;0.00;;;15.50;70.20;;;;;;4191317;28;20290;-63
2022/12/08 10:57:44;;;;;;;0.00;0.00;;;15.50;70.50;;;;;;4179264;28;20102;-63
2022/12/08 11:00:28;;;;;;;0.00;0.00;;;15.40;70.70;;;;;;4182120;28;20289;-63
2022/12/08 11:03:24;;;;;;;0.00;0.00;;;15.30;71.00;;;;;;4191394;28;20506;-63
2022/12/08 11:06:13;;;;;;;0.00;0.00;;;15.30;71.30;;;;;;4190846;28;20495;-63
2022/12/08 11:08:56;;;;;;;0.00;0.00;;;15.20;71.50;;;;;;4191117;28;20097;-63
2022/12/08 11:11:45;;;;;;;0.00;0.00;;;15.10;71.70;;;;;;4203600;28;20438;-63
2022/12/08 11:14:29;;;;;;;0.20;0.20;;;15.10;71.70;;;;;;4207521;28;20054;-63
2022/12/08 11:17:14;;;;;;;0.40;0.40;;;15.20;71.50;;;;;;4206427;28;20055;-63
2022/12/08 11:19:58;;;;;;;0.43;0.43;;;15.30;71.20;;;;;;4192105;28;20730;-63
2022/12/08 11:22:41;;;;;;;0.00;0.00;;;15.30;71.00;;;;;;4175443;28;20700;-63
2022/12/08 11:25:24;;;;;;;0.00;0.00;;;15.30;70.90;;;;;;4179907;28;20055;-64
2022/12/08 11:28:10;;;;;;;0.00;0.00;;;15.40;70.90;;;;;;4191685;28;20054;-64
2022/12/08 11:30:57;;;;;;;0.00;0.00;;;15.40;71.00;;;;;;4190847;28;20407;-63
2022/12/08 11:33:41;;;;;;;0.00;0.00;;;15.40;71.10;;;;;;4192469;28;20525;-63
2022/12/08 11:36:26;;;;;;;4.90;3.63;;;15.30;71.20;;;;;;4194657;28;20134;-63
2022/12/08 11:39:12;;;;;;;0.15;0.15;;;15.30;71.40;;;;;;4194741;28;20043;-62
2022/12/08 11:41:54;;;;;;;0.00;0.00;;;15.20;71.60;;;;;;4193699;28;20052;-62
2022/12/08 11:44:42;;;;;;;0.00;0.00;;;15.20;72.00;;;;;;4195129;28;20141;-62
2022/12/08 11:47:28;;;;;;;0.00;0.00;;;15.20;72.30;;;;;;4178388;28;20589;-61
2022/12/08 11:50:19;;;;;;;0.00;0.00;;;15.20;72.10;;;;;;4193564;28;20182;-62
2022/12/08 11:53:02;;;;;;;4.75;2.20;;;15.30;71.80;;;;;;4194341;28;20075;-63
2022/12/08 11:55:50;;;;;;;0.20;0.20;;;15.30;71.60;;;;;;4193720;28;20056;-62
2022/12/08 11:58:38;;;;;;;0.43;0.43;;;15.40;71.40;;;;;;4194118;28;20416;-62
2022/12/08 12:01:21;;;;;;;2.92;1.60;;;15.40;71.40;;;;;;4192938;28;20058;-63
2022/12/08 12:04:12;;;;;;;0.00;0.00;;;15.40;71.50;;;;;;4194148;28;20113;-63
2022/12/08 12:07:29;;;;;;;0.00;0.00;;;15.40;71.50;;;;;;4177537;28;20411;-63
2022/12/08 12:10:26;;;;;;;0.20;0.20;;;15.40;71.50;;;;;;4175906;28;20044;-63
2022/12/08 12:13:44;;;;;;;0.00;0.00;;;15.40;71.70;;;;;;4177088;28;20052;-63
2022/12/08 12:16:48;;;;;;;0.00;0.00;;;15.40;71.80;;;;;;4191725;28;20055;-64
2022/12/08 12:19:35;;;;;;;0.00;0.00;;;15.40;71.70;;;;;;4192998;28;20067;-63
2022/12/08 12:22:20;;;;;;;1.65;1.30;;;15.40;71.60;;;;;;4180861;28;20053;-63
2022/12/08 12:25:02;;;;;;;0.00;0.00;;;15.40;71.70;;;;;;4198303;28;20047;-63
2022/12/08 12:27:44;;;;;;;;;;;15.40;71.90;;;;;;4210583;28;20096;-63
2022/12/08 12:30:27;;;;;;;0.00;0.00;;;15.40;72.00;;;;;;4209768;28;20008;-63
2022/12/08 12:33:12;;;;;;;0.00;0.00;;;15.40;71.90;;;;;;4209768;28;20493;-63
2022/12/08 12:35:57;;;;;;;0.00;0.00;;;15.50;71.80;;;;;;4209626;28;20210;-63
2022/12/08 12:39:06;;;;;;;0.00;0.00;;;15.50;71.80;;;;;;4193478;28;20055;-63
2022/12/08 12:41:49;;;;;;;1.30;1.30;;;15.50;71.50;;;;;;4193187;28;20063;-63
2022/12/08 12:44:42;;;;;;;0.00;0.00;;;15.60;71.20;;;;;;4209071;28;21230;-63
2022/12/08 12:47:47;;;;;;;0.00;0.00;;;15.60;71.10;;;;;;4208667;28;20173;-63
2022/12/08 12:50:43;;;;;;;0.00;0.00;;;15.60;71.50;;;;;;4206281;28;20414;-62
2022/12/08 12:53:48;;;;;;;0.00;0.00;;;15.60;70.90;;;;;;4207632;28;20047;-63
2022/12/08 12:56:50;;;;;;;9.35;1.08;;;15.60;70.90;;;;;;4193029;28;20059;-63
2022/12/08 12:59:41;;;;;;;0.00;0.00;;;15.60;71.20;;;;;;4191657;28;20056;-62
2022/12/08 13:02:27;;;;;;;0.00;0.00;;;15.50;71.00;;;;;;4194775;28;20054;-63
2022/12/08 13:05:10;;;;;;;0.00;0.00;;;15.50;71.10;;;;;;4192458;28;20387;-62
2022/12/08 13:07:55;;;;;;;0.32;0.32;;;15.50;71.40;;;;;;4208712;28;20906;-63
2022/12/08 13:10:40;;;;;;;0.00;0.00;;;15.50;71.30;;;;;;4209373;28;20387;-62
2022/12/08 13:13:20;;;;;;;0.00;0.00;;;15.50;71.20;;;;;;4209232;28;20046;-62
2022/12/08 13:16:12;;;;;;;18.50;3.00;;;15.60;71.20;;;;;;4209015;28;20059;-63
2022/12/08 13:19:01;;;;;;;0.00;0.00;;;15.60;71.30;;;;;;4196103;28;20075;-62
2022/12/08 13:21:42;;;;;;;0.43;0.43;;;15.70;71.20;;;;;;4192572;28;20605;-62
2022/12/08 13:24:42;;;;;;;0.00;0.00;;;15.70;70.90;;;;;;4192563;28;20507;-63
2022/12/08 13:27:34;;;;;;;0.00;0.00;;;15.80;70.40;;;;;;4193812;28;20067;-62
2022/12/08 13:30:44;;;;;;;0.03;0.03;;;15.80;70.20;;;;;;4204720;28;20052;-62
2022/12/08 13:33:28;;;;;;;0.10;0.10;;;15.80;70.10;;;;;;4208285;28;20055;-63
2022/12/08 13:36:19;;;;;;;0.00;0.00;;;15.70;70.20;;;;;;4192644;28;20051;-63
2022/12/08 13:39:03;;;;;;;0.05;0.05;;;15.60;70.40;;;;;;4190931;28;20047;-63
2022/12/08 13:41:52;;;;;;;0.00;0.00;;;15.60;70.90;;;;;;4192362;28;20059;-62
2022/12/08 13:44:41;;;;;;;0.00;0.00;;;15.50;71.30;;;;;;4176752;28;20055;-62
2022/12/08 13:47:47;;;;;;;0.00;0.00;;;15.50;71.20;;;;;;4195929;28;20092;-62
2022/12/08 13:50:53;;;;;;;0.00;0.00;;;15.60;71.00;;;;;;4191828;28;20093;-62
2022/12/08 13:54:00;;;;;;;0.32;0.32;;;15.60;70.80;;;;;;4191894;28;20475;-65
2022/12/08 13:57:02;;;;;;;0.00;0.00;;;15.60;70.90;;;;;;4188627;28;20552;-65
2022/12/08 13:59:52;;;;;;;0.00;0.00;;;15.60;71.00;;;;;;4207709;28;20058;-65
2022/12/08 14:02:36;;;;;;;1.02;1.02;;;15.60;71.00;;;;;;4202791;28;20051;-64
2022/12/08 14:05:23;;;;;;;0.55;0.55;;;15.70;70.90;;;;;;4202363;28;20042;-64
2022/12/08 14:08:30;;;;;;;0.57;0.57;;;15.70;71.70;;;;;;4208895;28;20092;-65
2022/12/08 14:11:35;;;;;;;0.75;0.75;;;15.70;70.70;;;;;;4203634;28;20075;-65
2022/12/08 14:14:19;;;;;;;0.00;0.00;;;15.70;70.80;;;;;;4205599;28;20124;-65
2022/12/08 14:17:24;;;;;;;0.00;0.00;;;15.60;70.90;;;;;;4208413;28;20051;-65
2022/12/08 14:20:19;;;;;;;0.00;0.00;;;15.60;71.10;;;;;;4196412;28;20050;-62
2022/12/08 14:23:00;;;;;;;0.00;0.00;;;15.50;71.40;;;;;;4207925;28;20500;-62